createdAt,value
2018-03-11T00:00:58.044Z,92.79
2018-03-11T00:03:27.481Z,92.64
2018-03-11T00:05:56.157Z,92.55
2018-03-11T00:08:24.525Z,92.52
2018-03-11T00:10:52.912Z,92.51
2018-03-11T00:13:21.200Z,92.49
2018-03-11T00:15:49.668Z,92.54
2018-03-11T00:18:17.971Z,92.84
2018-03-11T00:20:46.331Z,92.93
2018-03-11T00:23:14.608Z,92.93
2018-03-11T00:25:42.892Z,92.94
2018-03-11T00:28:11.207Z,92.95
2018-03-11T00:30:40.236Z,92.83
2018-03-11T00:33:08.500Z,92.75
2018-03-11T00:35:38.181Z,92.46
2018-03-11T00:38:06.982Z,92.43
2018-03-11T00:40:36.088Z,92.36
2018-03-11T00:43:05.226Z,92.44
2018-03-11T00:45:33.491Z,92.57
2018-03-11T00:48:01.783Z,92.89
2018-03-11T00:50:31.191Z,93.30
2018-03-11T00:53:00.181Z,93.58
2018-03-11T00:55:28.468Z,94.00
2018-03-11T00:57:56.748Z,94.51
2018-03-11T01:00:25.041Z,94.75
2018-03-11T01:02:54.000Z,94.86
2018-03-11T01:05:22.269Z,94.88
2018-03-11T01:07:50.560Z,94.81
2018-03-11T01:10:18.956Z,94.88
2018-03-11T01:12:47.221Z,94.80
2018-03-11T01:15:15.496Z,94.72
2018-03-11T01:17:43.780Z,94.63
2018-03-11T01:20:12.160Z,94.58
2018-03-11T01:22:40.970Z,94.59
2018-03-11T01:25:09.276Z,94.59
2018-03-11T01:27:38.315Z,94.45
2018-03-11T01:30:06.577Z,94.30
2018-03-11T01:32:35.401Z,94.31
2018-03-11T01:35:03.708Z,94.19
2018-03-11T01:37:31.936Z,94.09
2018-03-11T01:40:00.368Z,93.98
2018-03-11T01:42:28.954Z,93.75
2018-03-11T01:44:58.001Z,93.63
2018-03-11T01:47:26.277Z,93.48
2018-03-11T01:49:54.644Z,93.55
2018-03-11T01:52:22.937Z,93.57
2018-03-11T01:54:51.200Z,93.61
2018-03-11T01:57:19.710Z,93.58
2018-03-11T01:59:48.057Z,93.41
2018-03-11T02:02:17.176Z,93.45
2018-03-11T02:04:45.459Z,93.36
2018-03-11T02:07:13.724Z,93.45
2018-03-11T02:09:42.534Z,93.64
2018-03-11T02:12:11.020Z,93.63
2018-03-11T02:14:39.387Z,93.69
2018-03-11T02:17:07.964Z,93.51
2018-03-11T02:19:36.275Z,93.31
2018-03-11T02:22:04.620Z,93.09
2018-03-11T02:24:32.878Z,93.15
2018-03-11T02:27:01.612Z,93.26
2018-03-11T02:29:30.263Z,93.24
2018-03-11T02:31:58.536Z,93.46
2018-03-11T02:34:26.862Z,93.63
2018-03-11T02:36:56.019Z,93.92
2018-03-11T02:39:25.055Z,94.07
2018-03-11T02:41:54.442Z,94.12
2018-03-11T02:44:22.812Z,94.00
2018-03-11T02:46:51.727Z,93.89
2018-03-11T02:49:20.273Z,93.64
2018-03-11T02:51:50.237Z,93.68
2018-03-11T02:54:19.133Z,93.68
2018-03-11T02:56:47.572Z,93.74
2018-03-11T02:59:15.852Z,93.82
2018-03-11T03:01:44.124Z,94.22
2018-03-11T03:04:12.496Z,94.16
2018-03-11T03:06:40.803Z,94.21
2018-03-11T03:09:09.793Z,94.17
2018-03-11T03:11:38.055Z,94.19
2018-03-11T03:14:06.389Z,94.10
2018-03-11T03:16:35.518Z,94.18
2018-03-11T03:19:03.918Z,94.23
2018-03-11T03:21:33.000Z,94.30
2018-03-11T03:24:01.271Z,94.54
2018-03-11T03:26:29.656Z,94.55
2018-03-11T03:28:58.049Z,95.16
2018-03-11T03:31:26.317Z,95.53
2018-03-11T03:33:56.053Z,95.58
2018-03-11T03:36:24.423Z,95.83
2018-03-11T03:38:52.792Z,95.97
2018-03-11T03:41:21.063Z,96.02
2018-03-11T03:43:49.349Z,96.09
2018-03-11T03:46:18.790Z,96.21
2018-03-11T03:48:47.880Z,96.20
2018-03-11T03:51:17.056Z,96.10
2018-03-11T03:53:45.367Z,96.09
2018-03-11T03:56:13.635Z,96.13
2018-03-11T03:58:42.332Z,96.11
2018-03-11T04:01:10.625Z,96.11
2018-03-11T04:03:38.900Z,96.06
2018-03-11T04:06:07.954Z,96.05
2018-03-11T04:08:36.261Z,95.98
2018-03-11T04:11:06.035Z,95.94
2018-03-11T04:13:34.349Z,95.89
2018-03-11T04:16:03.128Z,95.93
2018-03-11T04:18:31.509Z,95.92
2018-03-11T04:20:59.816Z,95.87
2018-03-11T04:23:28.866Z,95.87
2018-03-11T04:25:57.689Z,95.78
2018-03-11T04:28:26.024Z,95.69
2018-03-11T04:30:55.176Z,95.65
2018-03-11T04:33:24.856Z,95.60
2018-03-11T04:35:53.724Z,95.56
2018-03-11T04:38:22.156Z,95.51
2018-03-11T04:40:50.408Z,95.50
2018-03-11T04:43:18.689Z,95.46
2018-03-11T04:45:47.050Z,95.37
2018-03-11T04:48:15.324Z,95.30
2018-03-11T04:50:43.588Z,95.38
2018-03-11T04:53:11.975Z,95.50
2018-03-11T04:55:41.070Z,95.50
2018-03-11T04:58:09.347Z,95.47
2018-03-11T05:00:39.060Z,95.44
2018-03-11T05:03:07.329Z,95.56
2018-03-11T05:05:35.612Z,95.52
2018-03-11T05:08:05.027Z,95.52
2018-03-11T05:10:33.304Z,95.44
2018-03-11T05:13:01.606Z,95.42
2018-03-11T05:15:30.457Z,95.42
2018-03-11T05:18:00.431Z,95.36
2018-03-11T05:20:28.739Z,95.33
2018-03-11T05:22:57.808Z,95.36
2018-03-11T05:25:27.006Z,95.30
2018-03-11T05:27:55.727Z,95.33
2018-03-11T05:30:24.000Z,95.60
2018-03-11T05:32:52.273Z,95.56
2018-03-11T05:35:21.495Z,95.66
2018-03-11T05:37:49.761Z,95.66
2018-03-11T05:40:18.029Z,95.64
2018-03-11T05:42:46.750Z,95.59
2018-03-11T05:45:16.220Z,95.61
2018-03-11T05:47:45.258Z,95.56
2018-03-11T05:50:13.880Z,95.49
2018-03-11T05:52:42.312Z,95.40
2018-03-11T05:55:10.596Z,95.34
2018-03-11T05:57:38.874Z,95.18
2018-03-11T06:00:08.164Z,95.25
2018-03-11T06:02:36.448Z,95.46
2018-03-11T06:05:04.733Z,95.58
2018-03-11T06:07:33.022Z,95.59
2018-03-11T06:10:02.114Z,95.44
2018-03-11T06:12:30.368Z,95.44
2018-03-11T06:14:59.259Z,95.45
2018-03-11T06:17:27.539Z,95.55
2018-03-11T06:19:55.791Z,95.66
2018-03-11T06:22:24.915Z,95.60
2018-03-11T06:24:53.172Z,95.68
2018-03-11T06:27:21.568Z,95.53
2018-03-11T06:29:49.864Z,95.38
2018-03-11T06:32:18.555Z,95.44
2018-03-11T06:34:46.928Z,95.33
2018-03-11T06:37:15.213Z,95.44
2018-03-11T06:39:43.472Z,95.46
2018-03-11T06:42:11.852Z,95.45
2018-03-11T06:44:40.129Z,95.50
2018-03-11T06:47:08.400Z,95.36
2018-03-11T06:49:36.799Z,95.36
2018-03-11T06:52:05.072Z,95.39
2018-03-11T06:54:34.677Z,95.37
2018-03-11T06:57:02.973Z,95.26
2018-03-11T06:59:31.248Z,95.30
2018-03-11T07:01:59.527Z,95.17
2018-03-11T07:04:28.002Z,95.23
2018-03-11T07:06:56.916Z,95.14
2018-03-11T07:09:25.624Z,94.98
2018-03-11T07:11:55.488Z,94.91
2018-03-11T07:14:23.778Z,94.95
2018-03-11T07:16:52.362Z,94.97
2018-03-11T07:19:20.628Z,94.82
2018-03-11T07:21:48.892Z,94.73
2018-03-11T07:24:17.388Z,94.85
2018-03-11T07:26:46.441Z,94.65
2018-03-11T07:29:16.248Z,95.01
2018-03-11T07:31:45.389Z,94.86
2018-03-11T07:34:13.644Z,94.78
2018-03-11T07:36:41.917Z,94.77
2018-03-11T07:39:10.993Z,94.63
2018-03-11T07:41:40.064Z,94.39
2018-03-11T07:44:08.531Z,94.44
2018-03-11T07:46:36.800Z,94.59
2018-03-11T07:49:05.072Z,94.45
2018-03-11T07:51:33.356Z,94.33
2018-03-11T07:54:02.174Z,94.03
2018-03-11T07:56:30.799Z,93.59
2018-03-11T07:58:59.920Z,93.47
2018-03-11T08:01:28.222Z,93.10
2018-03-11T08:03:56.492Z,92.92
2018-03-11T08:06:25.002Z,91.99
2018-03-11T08:08:53.265Z,92.31
2018-03-11T08:11:21.531Z,91.51
2018-03-11T08:13:49.829Z,90.52
2018-03-11T08:16:18.102Z,89.84
2018-03-11T08:18:46.373Z,89.79
2018-03-11T08:21:14.892Z,89.54
2018-03-11T08:23:43.943Z,89.29
2018-03-11T08:26:12.248Z,89.14
2018-03-11T08:28:41.041Z,88.64
2018-03-11T08:31:09.592Z,89.12
2018-03-11T08:33:38.410Z,89.52
2018-03-11T08:36:07.660Z,89.24
2018-03-11T08:38:35.953Z,89.18
2018-03-11T08:41:04.283Z,88.93
2018-03-11T08:43:33.320Z,89.21
2018-03-11T08:46:01.616Z,88.73
2018-03-11T08:48:30.848Z,88.84
2018-03-11T08:50:59.968Z,88.74
2018-03-11T08:53:29.092Z,88.20
2018-03-11T08:55:57.360Z,88.80
2018-03-11T08:58:25.637Z,88.80
2018-03-11T09:00:53.971Z,88.47
2018-03-11T09:03:22.254Z,88.50
2018-03-11T09:05:50.548Z,87.16
2018-03-11T09:08:19.625Z,87.37
2018-03-11T09:10:47.901Z,87.35
2018-03-11T09:13:16.176Z,87.52
2018-03-11T09:15:44.540Z,86.88
2018-03-11T09:18:12.805Z,87.53
2018-03-11T09:20:41.087Z,87.33
2018-03-11T09:23:09.381Z,86.65
2018-03-11T09:25:37.662Z,86.78
2018-03-11T09:28:05.997Z,85.73
2018-03-11T09:30:37.225Z,86.09
2018-03-11T09:33:06.309Z,86.05
2018-03-11T09:35:35.359Z,84.95
2018-03-11T09:38:03.636Z,84.48
2018-03-11T09:40:31.924Z,84.22
2018-03-11T09:43:00.205Z,83.85
2018-03-11T09:45:29.293Z,84.50
2018-03-11T09:47:58.487Z,84.39
2018-03-11T09:50:27.472Z,84.78
2018-03-11T09:52:56.591Z,84.04
2018-03-11T09:55:25.768Z,84.64
2018-03-11T09:57:54.044Z,84.69
2018-03-11T10:00:22.552Z,84.72
2018-03-11T10:02:50.930Z,83.26
2018-03-11T10:05:19.792Z,83.04
2018-03-11T10:07:48.089Z,82.36
2018-03-11T10:10:16.405Z,80.80
2018-03-11T10:12:45.548Z,80.41
2018-03-11T10:15:13.820Z,81.07
2018-03-11T10:17:42.172Z,81.57
2018-03-11T10:20:11.205Z,82.04
2018-03-11T10:22:39.507Z,82.06
2018-03-11T10:25:07.809Z,82.68
2018-03-11T10:27:36.870Z,82.56
2018-03-11T10:30:06.003Z,82.08
2018-03-11T10:32:34.280Z,81.44
2018-03-11T10:35:02.570Z,81.33
2018-03-11T10:37:31.614Z,80.71
2018-03-11T10:40:00.007Z,81.15
2018-03-11T10:42:28.281Z,79.28
2018-03-11T10:44:56.896Z,79.66
2018-03-11T10:47:25.806Z,79.01
2018-03-11T10:49:54.858Z,77.98
2018-03-11T10:52:23.807Z,76.90
2018-03-11T10:54:52.100Z,78.25
2018-03-11T10:57:20.400Z,77.69
2018-03-11T10:59:48.676Z,78.22
2018-03-11T11:02:23.348Z,78.52
2018-03-11T11:04:57.967Z,76.72
2018-03-11T11:07:28.363Z,77.23
2018-03-11T11:09:56.733Z,77.59
2018-03-11T11:12:25.789Z,76.94
2018-03-11T11:14:54.940Z,78.78
2018-03-11T11:17:23.228Z,76.55
2018-03-11T11:19:51.539Z,75.70
2018-03-11T11:22:20.607Z,75.15
2018-03-11T11:24:48.896Z,74.89
2018-03-11T11:27:17.944Z,74.76
2018-03-11T11:29:46.229Z,73.33
2018-03-11T11:32:14.496Z,72.61
2018-03-11T11:34:42.779Z,71.17
2018-03-11T11:37:11.049Z,70.78
2018-03-11T11:39:39.336Z,70.76
2018-03-11T11:42:07.714Z,71.04
2018-03-11T11:44:36.910Z,70.85
2018-03-11T11:47:06.332Z,70.55
2018-03-11T11:49:35.179Z,69.09
2018-03-11T11:52:03.903Z,69.17
2018-03-11T11:54:32.188Z,69.02
2018-03-11T11:57:00.570Z,69.50
2018-03-11T11:59:28.865Z,69.44
2018-03-11T12:01:57.132Z,69.47
2018-03-11T12:04:25.813Z,69.18
2018-03-11T12:06:54.420Z,69.68
2018-03-11T12:09:22.696Z,70.18
2018-03-11T12:11:51.651Z,70.50
2018-03-11T12:14:19.964Z,70.27
2018-03-11T12:16:48.347Z,70.35
2018-03-11T12:19:16.954Z,70.22
2018-03-11T12:21:46.000Z,70.90
2018-03-11T12:24:14.313Z,69.41
2018-03-11T12:26:42.601Z,68.59
2018-03-11T12:29:11.651Z,68.56
2018-03-11T12:31:39.953Z,67.53
2018-03-11T12:34:08.250Z,66.68
2018-03-11T12:36:38.020Z,66.70
2018-03-11T12:39:06.388Z,66.11
2018-03-11T12:41:34.664Z,66.96
2018-03-11T12:44:02.944Z,65.39
2018-03-11T12:46:31.239Z,64.85
2018-03-11T12:48:59.609Z,64.40
2018-03-11T12:51:28.329Z,62.19
2018-03-11T12:53:57.185Z,58.52
2018-03-11T12:56:26.004Z,56.18
2018-03-11T12:58:54.600Z,57.58
2018-03-11T13:01:23.049Z,58.82
2018-03-11T13:03:52.240Z,60.31
2018-03-11T13:06:21.148Z,61.44
2018-03-11T13:08:49.515Z,62.38
2018-03-11T13:11:17.788Z,63.66
2018-03-11T13:13:46.325Z,64.88
2018-03-11T13:16:14.635Z,64.87
2018-03-11T13:18:43.039Z,65.02
2018-03-11T13:21:12.454Z,65.72
2018-03-11T13:23:41.032Z,65.50
2018-03-11T13:26:09.312Z,65.69
2018-03-11T13:28:47.915Z,66.56
2018-03-11T13:31:16.159Z,66.10
2018-03-11T13:34:02.225Z,66.55
2018-03-11T13:36:31.192Z,67.06
2018-03-11T13:39:17.379Z,66.03
2018-03-11T13:41:45.656Z,62.84
2018-03-11T13:44:13.928Z,60.57
2018-03-11T13:47:11.129Z,60.72
2018-03-11T13:49:40.260Z,62.10
2018-03-11T13:52:26.304Z,62.48
2018-03-11T13:54:54.583Z,63.95
2018-03-11T14:00:55.805Z,65.98
2018-03-11T14:03:24.100Z,66.35
2018-03-11T14:05:53.456Z,66.96
2018-03-11T14:08:21.750Z,67.11
2018-03-11T14:10:51.608Z,68.26
2018-03-11T14:13:19.875Z,67.86
2018-03-11T14:15:48.577Z,67.88
2018-03-11T14:18:16.985Z,67.86
2018-03-11T14:20:45.253Z,67.82
2018-03-11T14:23:14.154Z,68.25
2018-03-11T14:25:42.911Z,68.59
2018-03-11T14:28:11.194Z,68.27
2018-03-11T14:30:39.460Z,68.06
2018-03-11T14:33:07.796Z,67.87
2018-03-11T14:35:36.836Z,67.94
2018-03-11T14:38:05.108Z,69.19
2018-03-11T14:40:33.490Z,69.65
2018-03-11T14:43:01.760Z,70.18
2018-03-11T14:45:30.051Z,70.12
2018-03-11T14:47:58.649Z,70.14
2018-03-11T14:50:27.368Z,70.68
2018-03-11T14:52:56.024Z,69.67
2018-03-11T14:55:24.396Z,69.56
2018-03-11T14:57:52.805Z,69.42
2018-03-11T15:00:21.069Z,68.34
2018-03-11T15:02:49.335Z,69.28
2018-03-11T15:05:17.706Z,69.02
2018-03-11T15:07:46.108Z,68.91
2018-03-11T15:10:14.700Z,68.59
2018-03-11T15:12:42.982Z,68.72
2018-03-11T15:15:11.860Z,68.01
2018-03-11T15:17:40.581Z,68.04
2018-03-11T15:20:09.624Z,68.37
2018-03-11T15:22:37.915Z,67.85
2018-03-11T15:25:06.279Z,67.51
2018-03-11T15:27:34.678Z,67.81
2018-03-11T15:30:02.983Z,67.25
2018-03-11T15:32:31.297Z,67.92
2018-03-11T15:34:59.598Z,69.28
2018-03-11T15:37:27.864Z,69.26
2018-03-11T15:39:56.172Z,68.80
2018-03-11T15:42:24.964Z,69.14
2018-03-11T15:44:53.628Z,69.18
2018-03-11T15:47:22.005Z,69.22
2018-03-11T15:49:51.178Z,69.14
2018-03-11T15:52:20.224Z,69.55
2018-03-11T15:54:48.496Z,69.26
2018-03-11T15:57:16.812Z,69.43
2018-03-11T15:59:45.866Z,70.03
2018-03-11T16:02:14.277Z,70.48
2018-03-11T16:04:42.550Z,70.44
2018-03-11T16:07:10.838Z,70.67
2018-03-11T16:09:39.167Z,71.66
2018-03-11T16:12:07.432Z,72.02
2018-03-11T16:14:35.708Z,72.04
2018-03-11T16:17:04.015Z,71.91
2018-03-11T16:19:32.306Z,72.09
2018-03-11T16:22:01.068Z,71.45
2018-03-11T16:24:29.793Z,72.21
2018-03-11T16:26:58.993Z,72.47
2018-03-11T16:29:27.295Z,72.88
2018-03-11T16:31:56.334Z,73.13
2018-03-11T16:34:26.364Z,73.66
2018-03-11T16:36:55.954Z,73.39
2018-03-11T16:39:24.260Z,73.51
2018-03-11T16:41:52.560Z,73.67
2018-03-11T16:44:20.837Z,73.92
2018-03-11T16:46:49.119Z,74.48
2018-03-11T16:49:18.603Z,73.88
2018-03-11T16:51:46.869Z,74.37
2018-03-11T16:54:15.169Z,74.34
2018-03-11T16:56:43.468Z,74.52
2018-03-11T16:59:12.506Z,74.40
2018-03-11T17:01:40.788Z,74.83
2018-03-11T17:04:09.082Z,75.03
2018-03-11T17:06:37.436Z,74.96
2018-03-11T17:09:05.722Z,75.14
2018-03-11T17:11:34.981Z,74.94
2018-03-11T17:14:04.049Z,75.58
2018-03-11T17:16:32.340Z,75.88
2018-03-11T17:19:00.661Z,76.45
2018-03-11T17:21:28.940Z,76.56
2018-03-11T17:23:57.250Z,76.84
2018-03-11T17:26:25.564Z,76.77
2018-03-11T17:28:54.687Z,77.53
2018-03-11T17:31:22.948Z,77.72
2018-03-11T17:33:51.742Z,77.95
2018-03-11T17:36:20.054Z,78.59
2018-03-11T17:38:48.330Z,78.83
2018-03-11T17:41:16.627Z,78.22
2018-03-11T17:43:45.817Z,78.44
2018-03-11T17:46:14.097Z,78.60
2018-03-11T17:48:42.401Z,78.62
2018-03-11T17:51:12.359Z,78.54
2018-03-11T17:53:40.637Z,78.83
2018-03-11T17:56:08.928Z,78.60
2018-03-11T17:58:37.760Z,79.09
2018-03-11T18:01:06.577Z,79.23
2018-03-11T18:03:35.711Z,78.96
2018-03-11T18:06:04.040Z,79.11
2018-03-11T18:08:33.610Z,79.52
2018-03-11T18:11:02.323Z,79.40
2018-03-11T18:13:30.988Z,79.10
2018-03-11T18:15:59.307Z,79.43
2018-03-11T18:18:28.390Z,79.29
2018-03-11T18:20:56.672Z,79.66
2018-03-11T18:23:25.742Z,79.51
2018-03-11T18:25:54.046Z,79.81
2018-03-11T18:28:23.139Z,80.23
2018-03-11T18:30:52.349Z,80.48
2018-03-11T18:33:21.901Z,80.15
2018-03-11T18:35:50.693Z,80.47
2018-03-11T18:38:19.005Z,80.77
2018-03-11T18:40:47.300Z,80.92
2018-03-11T18:43:16.365Z,81.59
2018-03-11T18:45:44.640Z,81.51
2018-03-11T18:48:13.016Z,80.81
2018-03-11T18:50:41.605Z,81.36
2018-03-11T18:53:10.648Z,81.36
2018-03-11T18:55:39.727Z,81.67
2018-03-11T18:58:08.784Z,81.19
2018-03-11T19:00:37.776Z,81.75
2018-03-11T19:03:06.369Z,81.94
2018-03-11T19:05:34.656Z,81.55
2018-03-11T19:08:03.338Z,81.97
2018-03-11T19:10:32.000Z,81.69
2018-03-11T19:13:00.281Z,81.60
2018-03-11T19:15:29.446Z,81.53
2018-03-11T19:17:58.525Z,81.52
2018-03-11T19:20:27.609Z,81.74
2018-03-11T19:22:56.001Z,81.59
2018-03-11T19:25:25.068Z,81.81
2018-03-11T19:27:53.432Z,82.04
2018-03-11T19:30:21.730Z,82.34
2018-03-11T19:32:50.100Z,82.60
2018-03-11T19:35:18.399Z,82.39
2018-03-11T19:37:47.509Z,82.47
2018-03-11T19:40:16.587Z,83.13
2018-03-11T19:42:45.093Z,82.87
2018-03-11T19:45:14.160Z,83.63
2018-03-11T19:47:42.469Z,83.78
2018-03-11T19:50:11.530Z,83.60
2018-03-11T19:52:39.879Z,83.18
2018-03-11T19:55:08.524Z,83.56
2018-03-11T19:57:37.613Z,84.28
2018-03-11T20:00:05.971Z,84.26
2018-03-11T20:02:34.371Z,85.61
2018-03-11T20:05:03.441Z,86.55
2018-03-11T20:07:31.731Z,86.24
2018-03-11T20:10:00.458Z,86.14
2018-03-11T20:12:29.552Z,86.91
2018-03-11T20:14:58.700Z,86.79
2018-03-11T20:17:27.025Z,87.38
2018-03-11T20:19:56.179Z,88.08
2018-03-11T20:22:25.053Z,88.22
2018-03-11T20:24:53.790Z,88.55
2018-03-11T20:27:22.482Z,88.53
2018-03-11T20:29:51.558Z,88.21
2018-03-11T20:32:20.160Z,88.50
2018-03-11T20:34:49.224Z,88.17
2018-03-11T20:37:17.702Z,87.92
2018-03-11T20:39:46.647Z,88.14
2018-03-11T20:42:16.345Z,88.58
2018-03-11T20:44:44.997Z,89.02
2018-03-11T20:47:13.276Z,89.74
2018-03-11T20:49:41.889Z,89.59
2018-03-11T20:52:10.972Z,89.46
2018-03-11T20:54:39.371Z,89.46
2018-03-11T20:57:08.429Z,89.37
2018-03-11T20:59:36.815Z,89.44
2018-03-11T21:02:05.120Z,89.46
2018-03-11T21:04:34.176Z,89.65
2018-03-11T21:07:02.894Z,89.76
2018-03-11T21:09:31.248Z,89.94
2018-03-11T21:11:59.509Z,89.97
2018-03-11T21:14:27.790Z,90.55
2018-03-11T21:16:56.192Z,91.08
2018-03-11T21:19:24.469Z,91.35
2018-03-11T21:21:52.753Z,91.21
2018-03-11T21:24:21.724Z,91.75
2018-03-11T21:26:50.004Z,91.76
2018-03-11T21:29:18.376Z,91.64
2018-03-11T21:31:46.662Z,91.56
2018-03-11T21:34:15.034Z,91.25
2018-03-11T21:36:44.603Z,90.78
2018-03-11T21:39:15.583Z,91.30
2018-03-11T21:41:43.996Z,92.02
2018-03-11T21:44:12.800Z,92.50
2018-03-11T21:46:41.135Z,92.12
2018-03-11T21:49:10.203Z,91.87
2018-03-11T21:51:38.471Z,91.69
2018-03-11T21:54:07.535Z,91.35
2018-03-11T21:56:35.887Z,91.22
2018-03-11T21:59:04.171Z,91.21
2018-03-11T22:01:32.445Z,91.94
2018-03-11T22:04:00.728Z,91.60
2018-03-11T22:06:29.052Z,91.62
2018-03-11T22:08:58.109Z,91.57
2018-03-11T22:11:26.607Z,91.64
2018-03-11T22:13:55.394Z,91.51
2018-03-11T22:16:24.288Z,90.38
2018-03-11T22:18:52.726Z,90.75
2018-03-11T22:21:21.391Z,90.80
2018-03-11T22:23:49.661Z,91.51
2018-03-11T22:26:18.996Z,91.72
2018-03-11T22:28:47.487Z,92.15
2018-03-11T22:31:15.972Z,92.42
2018-03-11T22:33:44.274Z,92.47
2018-03-11T22:36:13.072Z,92.49
2018-03-11T22:38:41.342Z,92.29
2018-03-11T22:41:09.637Z,92.38
2018-03-11T22:43:38.613Z,93.40
2018-03-11T22:46:07.310Z,93.50
2018-03-11T22:48:36.488Z,93.72
2018-03-11T22:51:04.777Z,93.47
2018-03-11T22:53:33.036Z,93.14
2018-03-11T22:56:01.411Z,92.78
2018-03-11T22:58:29.703Z,92.55
2018-03-11T23:00:58.076Z,92.61
2018-03-11T23:03:27.209Z,92.53
2018-03-11T23:05:56.272Z,92.87
2018-03-11T23:08:24.567Z,93.12
2018-03-11T23:10:52.908Z,93.15
2018-03-11T23:13:21.398Z,93.03
2018-03-11T23:15:49.728Z,92.90
2018-03-11T23:18:18.072Z,92.73
2018-03-11T23:20:46.469Z,92.81
2018-03-11T23:23:14.823Z,92.75
2018-03-11T23:25:43.091Z,92.70
2018-03-11T23:28:11.570Z,92.51
2018-03-11T23:30:39.939Z,93.10
2018-03-11T23:33:08.220Z,93.13
2018-03-11T23:35:37.647Z,92.93
2018-03-11T23:38:06.016Z,92.87
2018-03-11T23:40:34.278Z,93.24
2018-03-11T23:43:02.632Z,93.05
2018-03-11T23:45:32.587Z,93.17
2018-03-11T23:48:02.347Z,93.50
2018-03-11T23:50:32.161Z,93.20
2018-03-11T23:53:00.992Z,93.22
2018-03-11T23:55:29.284Z,93.08
2018-03-11T23:57:57.545Z,92.82
